Time;durP1;ratioP1;P1;durP2;ratioP2;P2;SDS_P1;SDS_P2;PMS_P1;PMS_P2;Temp;Humidity;BMP_temperature;BMP_pressure;BME280_temperature;BME280_humidity;BME280_pressure;Samples;Min_cycle;Max_cycle;Signal;HPM_P1;HPM_P2
2023/05/26 04:00:32;;;;;;;3.33;2.30;;;17.50;66.50;;;;;;6091062;22;20353;-77
2023/05/26 04:02:58;;;;;;;3.20;2.57;;;17.40;66.60;;;;;;4996330;28;20455;-77
2023/05/26 04:05:25;;;;;;;4.53;2.47;;;17.40;66.70;;;;;;4996353;28;20433;-77
2023/05/26 04:07:52;;;;;;;3.10;2.80;;;17.40;66.80;;;;;;4996766;28;20540;-77
2023/05/26 04:10:19;;;;;;;3.33;2.57;;;17.40;67.00;;;;;;4996413;28;20485;-77
2023/05/26 04:12:45;;;;;;;3.40;2.20;;;17.30;67.00;;;;;;4996365;28;20470;-77
2023/05/26 04:15:12;;;;;;;2.90;2.60;;;17.30;66.90;;;;;;4996935;28;20453;-77
2023/05/26 04:17:40;;;;;;;4.70;2.63;;;17.30;67.00;;;;;;4996285;28;20449;-77
2023/05/26 04:20:10;;;;;;;3.30;2.20;;;17.30;67.00;;;;;;4996336;28;20444;-77
2023/05/26 04:22:36;;;;;;;4.30;2.63;;;17.30;67.10;;;;;;4996173;28;20469;-77
2023/05/26 04:25:04;;;;;;;4.90;3.10;;;17.30;67.00;;;;;;4996192;28;20441;-77
2023/05/26 04:27:31;;;;;;;3.57;2.70;;;17.30;66.90;;;;;;4995867;28;20891;-77
2023/05/26 04:30:00;;;;;;;3.70;2.40;;;17.40;67.30;;;;;;4996016;28;20481;-75
2023/05/26 04:32:28;;;;;;;2.97;2.50;;;17.40;67.20;;;;;;4995849;28;20950;-78
2023/05/26 04:34:56;;;;;;;6.20;3.17;;;17.50;66.80;;;;;;4995709;28;20974;-77
2023/05/26 04:37:23;;;;;;;3.20;2.20;;;17.40;67.10;;;;;;4995959;28;20540;-77
2023/05/26 04:39:50;;;;;;;3.50;3.00;;;17.50;66.70;;;;;;4995914;28;20499;-77
2023/05/26 04:42:18;;;;;;;3.73;2.87;;;17.50;66.70;;;;;;4995465;28;20990;-76
2023/05/26 04:44:45;;;;;;;4.30;3.10;;;17.60;66.10;;;;;;4995892;28;20458;-77
2023/05/26 04:47:13;;;;;;;3.57;2.70;;;17.60;66.40;;;;;;4995745;28;20457;-77
2023/05/26 04:49:40;;;;;;;3.47;2.27;;;17.70;66.30;;;;;;4995047;28;20568;-76
2023/05/26 04:52:09;;;;;;;4.37;2.40;;;17.70;66.40;;;;;;4995650;28;20469;-75
2023/05/26 04:54:40;;;;;;;4.30;3.07;;;17.60;66.70;;;;;;4995612;28;20544;-75
2023/05/26 04:57:07;;;;;;;3.70;3.27;;;17.50;67.20;;;;;;4995651;28;20441;-76
2023/05/26 04:59:37;;;;;;;3.47;3.17;;;17.50;67.80;;;;;;4995545;28;20445;-75
2023/05/26 05:02:04;;;;;;;4.33;2.70;;;17.50;67.10;;;;;;4995213;28;20481;-76
2023/05/26 05:04:31;;;;;;;3.47;3.10;;;17.60;67.10;;;;;;4995460;28;20449;-76
2023/05/26 05:06:58;;;;;;;4.27;3.07;;;17.60;66.40;;;;;;4995444;28;20455;-76
2023/05/26 05:09:26;;;;;;;4.10;2.87;;;17.80;66.40;;;;;;4995339;28;20571;-77
2023/05/26 05:11:53;;;;;;;6.63;3.67;;;17.90;65.90;;;;;;4995226;28;20477;-77
2023/05/26 05:14:20;;;;;;;4.53;3.07;;;18.00;65.80;;;;;;4995259;28;20449;-77
2023/05/26 05:16:46;;;;;;;3.53;2.90;;;18.00;65.80;;;;;;4994866;28;20982;-78
2023/05/26 05:19:13;;;;;;;3.43;2.97;;;18.00;65.50;;;;;;4995174;28;20539;-77
2023/05/26 05:21:40;;;;;;;5.17;3.20;;;18.20;65.30;;;;;;4994783;28;20501;-77
2023/05/26 05:24:07;;;;;;;4.83;2.70;;;18.30;65.50;;;;;;4994956;28;20857;-76
2023/05/26 05:26:37;;;;;;;3.37;2.97;;;18.40;64.90;;;;;;4994681;28;20961;-77
2023/05/26 05:29:03;;;;;;;3.57;2.90;;;18.50;65.10;;;;;;4994983;28;20500;-77
2023/05/26 05:31:30;;;;;;;4.07;3.40;;;18.60;65.00;;;;;;4994787;28;20522;-76
2023/05/26 05:33:57;;;;;;;3.67;2.80;;;18.70;64.90;;;;;;4994861;28;20453;-76
2023/05/26 05:36:24;;;;;;;3.93;3.07;;;18.80;63.90;;;;;;4994851;28;20453;-76
2023/05/26 05:38:51;;;;;;;4.03;3.13;;;18.80;64.20;;;;;;4994774;28;20890;-76
2023/05/26 05:41:18;;;;;;;3.63;3.20;;;19.00;64.30;;;;;;4994947;28;20461;-76
2023/05/26 05:43:46;;;;;;;4.20;3.77;;;19.10;63.40;;;;;;4994698;28;20595;-77
2023/05/26 05:46:13;;;;;;;4.20;3.07;;;19.00;63.40;;;;;;4994831;28;20450;-76
2023/05/26 05:48:42;;;;;;;3.07;2.77;;;18.90;63.90;;;;;;4994634;28;20454;-76
2023/05/26 05:51:08;;;;;;;3.93;3.17;;;18.80;64.20;;;;;;4994435;28;20493;-76
2023/05/26 05:53:35;;;;;;;4.70;3.33;;;19.00;64.40;;;;;;4994517;28;20810;-76
2023/05/26 05:56:02;;;;;;;6.77;3.10;;;19.00;64.10;;;;;;4994193;28;20827;-76
2023/05/26 05:58:28;;;;;;;4.47;3.00;;;19.10;64.10;;;;;;4994486;28;20445;-76
2023/05/26 06:00:57;;;;;;;4.23;3.40;;;19.30;63.50;;;;;;4993294;28;20540;-76
2023/05/26 06:03:23;;;;;;;4.73;3.47;;;19.50;63.40;;;;;;4994437;28;20533;-76
2023/05/26 06:05:50;;;;;;;3.90;3.10;;;19.70;62.10;;;;;;4994345;28;20798;-76
2023/05/26 06:08:17;;;;;;;3.40;3.10;;;19.80;61.30;;;;;;4993984;28;21007;-76
2023/05/26 06:10:44;;;;;;;4.00;3.60;;;19.80;61.00;;;;;;4993701;28;20489;-76
2023/05/26 06:13:11;;;;;;;3.40;3.10;;;20.00;61.20;;;;;;4994102;28;20480;-75
2023/05/26 06:15:37;;;;;;;5.00;3.73;;;20.30;59.80;;;;;;4994464;28;20508;-75
2023/05/26 06:18:05;;;;;;;3.60;3.30;;;20.00;60.70;;;;;;4994153;28;20499;-76
2023/05/26 06:20:32;;;;;;;3.07;2.77;;;20.20;60.90;;;;;;4994136;28;20448;-76
2023/05/26 06:22:59;;;;;;;4.27;3.87;;;20.40;60.20;;;;;;4994113;28;20449;-76
2023/05/26 06:25:26;;;;;;;3.80;3.40;;;20.70;59.20;;;;;;4994038;28;20446;-76
2023/05/26 06:27:52;;;;;;;5.60;3.50;;;20.90;59.40;;;;;;4994008;28;20445;-76
2023/05/26 06:30:19;;;;;;;4.13;3.30;;;21.10;58.40;;;;;;4993901;28;20485;-76
2023/05/26 06:32:46;;;;;;;3.80;3.07;;;21.20;58.40;;;;;;4993836;28;20473;-76
2023/05/26 06:35:14;;;;;;;4.17;3.70;;;21.20;58.20;;;;;;4993927;28;20441;-76
2023/05/26 06:37:40;;;;;;;4.50;3.40;;;20.80;57.50;;;;;;4993884;28;20449;-76
2023/05/26 06:40:08;;;;;;;4.97;3.43;;;20.80;59.10;;;;;;4993849;28;20523;-77
2023/05/26 06:42:35;;;;;;;4.10;3.30;;;21.00;58.80;;;;;;4993546;28;20909;-76
2023/05/26 06:45:02;;;;;;;5.20;3.50;;;21.10;58.00;;;;;;4993816;28;20449;-74
2023/05/26 06:47:28;;;;;;;3.63;3.00;;;21.20;58.30;;;;;;4993812;28;20461;-76
2023/05/26 06:49:55;;;;;;;4.40;3.70;;;21.20;58.00;;;;;;4993663;28;20489;-72
2023/05/26 06:52:23;;;;;;;3.33;2.83;;;21.00;59.30;;;;;;4993680;28;20469;-75
2023/05/26 06:54:50;;;;;;;3.97;3.57;;;21.10;58.60;;;;;;4993550;28;20461;-75
2023/05/26 06:57:17;;;;;;;3.40;3.10;;;21.20;60.30;;;;;;4993416;28;21005;-75
2023/05/26 06:59:44;;;;;;;4.80;3.03;;;21.30;59.10;;;;;;4994191;28;20453;-76
2023/05/26 07:02:11;;;;;;;4.17;3.60;;;21.50;58.10;;;;;;4993594;28;20540;-76
2023/05/26 07:04:38;;;;;;;4.30;3.77;;;21.60;58.40;;;;;;4994193;28;20449;-76
2023/05/26 07:07:05;;;;;;;3.50;2.93;;;21.80;57.40;;;;;;4994123;28;20445;-76
2023/05/26 07:09:33;;;;;;;3.83;3.43;;;21.70;57.00;;;;;;4994244;28;20461;-77
2023/05/26 07:11:59;;;;;;;3.53;3.20;;;21.60;58.00;;;;;;4995938;28;20624;-76
2023/05/26 07:14:26;;;;;;;3.80;3.40;;;21.60;57.90;;;;;;4997723;28;20445;-76
2023/05/26 07:16:53;;;;;;;5.03;3.43;;;21.60;57.70;;;;;;4997585;28;20448;-77
2023/05/26 07:19:20;;;;;;;4.53;3.53;;;21.60;58.10;;;;;;4998001;28;20484;-77
2023/05/26 07:21:46;;;;;;;4.60;3.50;;;21.70;57.80;;;;;;4997345;28;20581;-76
2023/05/26 07:24:13;;;;;;;5.10;3.77;;;21.90;58.00;;;;;;4997507;28;20440;-77
2023/05/26 07:26:41;;;;;;;4.80;4.10;;;22.10;56.50;;;;;;4997914;28;20531;-76
2023/05/26 07:29:08;;;;;;;4.53;3.57;;;21.90;56.60;;;;;;4997835;28;20942;-76
2023/05/26 07:31:34;;;;;;;6.00;3.90;;;21.60;58.00;;;;;;4997729;28;20551;-77
2023/05/26 07:34:01;;;;;;;4.30;3.63;;;21.70;58.60;;;;;;4997697;28;20452;-76
2023/05/26 07:36:28;;;;;;;5.43;3.87;;;21.70;58.50;;;;;;4997574;28;20496;-76
2023/05/26 07:38:54;;;;;;;3.70;3.27;;;21.70;57.70;;;;;;4998862;28;20846;-76
2023/05/26 07:41:22;;;;;;;4.43;3.60;;;21.50;58.30;;;;;;4997552;28;20505;-76
2023/05/26 07:43:50;;;;;;;4.30;3.70;;;21.80;57.30;;;;;;4996836;28;20457;-76
2023/05/26 07:46:16;;;;;;;4.10;3.70;;;21.90;57.70;;;;;;4996843;28;20453;-76
2023/05/26 07:48:43;;;;;;;3.47;3.17;;;21.90;58.40;;;;;;4996809;28;20449;-76
2023/05/26 07:51:10;;;;;;;4.20;3.47;;;21.70;57.10;;;;;;4996878;28;20493;-76
2023/05/26 07:53:36;;;;;;;4.73;3.70;;;21.10;57.90;;;;;;4997555;28;20453;-76
2023/05/26 07:56:03;;;;;;;4.93;3.57;;;21.30;59.20;;;;;;4996673;28;20827;-76
2023/05/26 07:58:30;;;;;;;4.30;3.80;;;21.60;60.00;;;;;;4996681;28;20449;-77
2023/05/26 08:00:58;;;;;;;4.20;3.70;;;21.40;59.80;;;;;;4996639;28;20485;-76
2023/05/26 08:03:25;;;;;;;3.73;3.43;;;21.70;60.10;;;;;;4996926;28;20802;-76
2023/05/26 08:05:52;;;;;;;3.90;3.50;;;22.10;58.00;;;;;;4996858;28;20869;-76
2023/05/26 08:08:18;;;;;;;4.43;3.20;;;22.20;56.80;;;;;;4996683;28;20457;-76
2023/05/26 08:10:45;;;;;;;4.70;3.50;;;22.00;57.00;;;;;;4997292;28;20489;-77
2023/05/26 08:13:12;;;;;;;4.50;3.53;;;22.00;58.40;;;;;;4996400;28;21018;-76
2023/05/26 08:15:38;;;;;;;4.00;3.40;;;22.30;57.10;;;;;;4997210;28;20453;-76
2023/05/26 08:18:06;;;;;;;4.30;3.77;;;22.50;56.30;;;;;;4996757;28;20507;-76
2023/05/26 08:20:33;;;;;;;3.47;3.17;;;22.50;57.00;;;;;;4996468;28;20441;-76
2023/05/26 08:23:00;;;;;;;3.77;3.37;;;22.50;55.30;;;;;;4995412;28;20452;-76
2023/05/26 08:25:27;;;;;;;4.40;3.57;;;22.60;55.50;;;;;;4996433;28;20460;-76
2023/05/26 08:27:54;;;;;;;4.40;3.57;;;22.80;54.50;;;;;;4996745;28;20454;-76
2023/05/26 08:30:20;;;;;;;4.43;3.20;;;22.80;56.60;;;;;;4996277;28;20496;-76
2023/05/26 08:32:47;;;;;;;3.90;3.50;;;22.70;55.60;;;;;;4996075;28;20942;-76
2023/05/26 08:35:15;;;;;;;3.50;3.20;;;22.80;55.20;;;;;;4996141;28;20527;-77
2023/05/26 08:37:42;;;;;;;4.17;3.33;;;22.90;55.50;;;;;;4996002;28;20450;-76
2023/05/26 08:40:11;;;;;;;5.60;4.17;;;23.00;57.50;;;;;;4996157;28;20500;-76
2023/05/26 08:42:44;;;;;;;3.47;3.17;;;22.80;56.60;;;;;;4996071;28;20484;-76
2023/05/26 08:45:12;;;;;;;4.10;2.97;;;23.10;55.80;;;;;;4995573;28;20456;-76
2023/05/26 08:47:42;;;;;;;4.70;3.37;;;23.20;55.00;;;;;;4995871;28;20504;-76
2023/05/26 08:50:09;;;;;;;3.90;3.50;;;23.40;54.20;;;;;;4995703;28;20547;-76
2023/05/26 08:52:38;;;;;;;4.50;3.70;;;23.60;54.40;;;;;;4995582;28;20833;-74
2023/05/26 08:55:07;;;;;;;4.93;3.67;;;23.60;54.20;;;;;;4995762;28;20499;-77
2023/05/26 08:57:35;;;;;;;3.80;2.87;;;23.60;54.80;;;;;;4995811;28;20552;-76
2023/05/26 09:00:03;;;;;;;4.80;4.00;;;23.80;56.00;;;;;;4995538;28;20446;-76
2023/05/26 09:02:30;;;;;;;3.73;3.10;;;23.70;54.90;;;;;;4995221;28;20515;-76
2023/05/26 09:04:56;;;;;;;4.37;3.30;;;23.70;54.00;;;;;;4995735;28;20477;-76
2023/05/26 09:07:23;;;;;;;4.60;4.10;;;23.80;54.00;;;;;;4995345;28;20449;-76
2023/05/26 09:09:51;;;;;;;4.17;3.13;;;23.60;54.80;;;;;;4995249;28;20500;-76
2023/05/26 09:12:18;;;;;;;4.50;3.30;;;23.70;54.90;;;;;;4995170;28;20540;-76
2023/05/26 09:14:45;;;;;;;5.20;3.23;;;23.20;53.40;;;;;;4995212;28;20496;-76
2023/05/26 09:17:12;;;;;;;4.40;4.00;;;22.80;55.80;;;;;;4995019;28;21001;-77
2023/05/26 09:19:39;;;;;;;3.43;2.93;;;23.00;58.30;;;;;;4995143;28;20496;-76
2023/05/26 09:22:08;;;;;;;4.27;3.60;;;23.00;55.60;;;;;;4995027;28;20541;-76
2023/05/26 09:24:44;;;;;;;5.77;3.00;;;23.10;55.20;;;;;;4995115;28;20449;-77
2023/05/26 09:27:18;;;;;;;5.07;2.80;;;23.30;55.30;;;;;;4995581;28;20429;-77
2023/05/26 09:29:52;;;;;;;5.10;3.50;;;23.40;56.00;;;;;;4995002;28;20432;-76
2023/05/26 09:32:19;;;;;;;4.80;2.90;;;23.40;54.50;;;;;;4994755;28;20489;-76
2023/05/26 09:34:46;;;;;;;3.40;2.87;;;23.00;54.70;;;;;;4994644;28;20441;-75
2023/05/26 09:37:13;;;;;;;3.30;3.00;;;23.00;56.40;;;;;;4994834;28;20497;-76
2023/05/26 09:39:40;;;;;;;3.63;3.03;;;23.10;55.60;;;;;;4994825;28;20445;-76
2023/05/26 09:42:07;;;;;;;4.10;2.60;;;23.30;54.90;;;;;;4994698;28;20457;-76
2023/05/26 09:44:36;;;;;;;4.87;3.13;;;23.30;55.10;;;;;;4995638;28;20460;-76
2023/05/26 09:47:03;;;;;;;3.83;3.10;;;23.40;55.00;;;;;;4995260;28;20449;-77
2023/05/26 09:49:33;;;;;;;3.50;3.03;;;23.80;54.00;;;;;;4995391;28;20457;-77
2023/05/26 09:52:00;;;;;;;4.90;3.30;;;23.90;53.80;;;;;;4995729;28;20482;-76
2023/05/26 09:54:27;;;;;;;3.77;3.03;;;23.90;54.50;;;;;;4994505;28;20448;-76
2023/05/26 09:56:58;;;;;;;3.80;3.03;;;23.90;54.80;;;;;;4994607;28;20826;-76
2023/05/26 09:59:31;;;;;;;3.53;3.23;;;23.90;54.50;;;;;;4994515;28;20437;-77
2023/05/26 10:02:00;;;;;;;3.03;2.73;;;24.10;53.20;;;;;;4994005;28;20485;-77
2023/05/26 10:04:28;;;;;;;4.00;3.60;;;24.20;53.00;;;;;;4994361;28;20445;-77
2023/05/26 10:06:56;;;;;;;4.10;3.10;;;24.30;52.90;;;;;;4994343;28;20453;-77
2023/05/26 10:09:24;;;;;;;3.20;2.90;;;24.20;53.50;;;;;;4994174;28;20873;-77
2023/05/26 10:11:53;;;;;;;5.30;3.17;;;24.30;55.30;;;;;;4994049;28;20489;-78
2023/05/26 10:14:20;;;;;;;4.73;2.80;;;24.50;53.20;;;;;;4994723;28;20464;-77
2023/05/26 10:16:47;;;;;;;3.60;2.80;;;24.40;54.10;;;;;;4993967;28;20461;-77
2023/05/26 10:19:16;;;;;;;3.50;2.87;;;24.40;53.90;;;;;;4994178;28;20453;-77
2023/05/26 10:21:49;;;;;;;3.50;3.17;;;24.60;52.20;;;;;;4993782;28;20480;-77
2023/05/26 10:24:22;;;;;;;5.33;3.23;;;24.80;51.70;;;;;;4994108;28;20445;-77
2023/05/26 10:26:55;;;;;;;3.40;2.90;;;24.90;51.70;;;;;;4994133;28;20429;-77
2023/05/26 10:29:29;;;;;;;3.13;2.70;;;24.70;53.50;;;;;;4994628;28;20438;-77
2023/05/26 10:31:55;;;;;;;3.30;3.00;;;24.70;54.50;;;;;;4994590;28;20601;-77
2023/05/26 10:34:42;;;;;;;3.87;2.57;;;25.00;52.10;;;;;;4993939;28;20453;-77
2023/05/26 10:37:15;;;;;;;3.20;2.60;;;25.20;52.10;;;;;;4994000;28;20433;-77
2023/05/26 10:39:42;;;;;;;4.83;3.27;;;25.20;52.20;;;;;;4993696;28;20822;-77
2023/05/26 10:42:19;;;;;;;3.77;3.03;;;25.30;53.00;;;;;;4993960;28;20472;-74
2023/05/26 10:44:48;;;;;;;3.40;3.10;;;25.40;52.70;;;;;;4993989;28;20452;-77
2023/05/26 10:47:17;;;;;;;3.30;3.00;;;25.30;53.50;;;;;;4999707;28;20547;-78
2023/05/26 10:49:53;;;;;;;3.53;2.90;;;24.80;53.10;;;;;;5002991;28;20960;-77
2023/05/26 10:52:20;;;;;;;3.73;3.33;;;24.50;53.30;;;;;;5003854;28;20548;-78
2023/05/26 10:54:48;;;;;;;4.30;3.90;;;24.10;54.10;;;;;;5009448;28;20504;-78
2023/05/26 10:57:31;;;;;;;3.43;3.13;;;24.00;55.90;;;;;;5012159;28;20480;-78
2023/05/26 10:59:58;;;;;;;3.80;3.40;;;24.50;54.50;;;;;;5014701;28;20507;-78
2023/05/26 11:02:25;;;;;;;4.80;3.43;;;24.70;53.60;;;;;;5014129;28;20481;-78
2023/05/26 11:04:54;;;;;;;3.43;2.97;;;25.00;54.00;;;;;;5012989;28;20476;-78
2023/05/26 11:07:23;;;;;;;3.20;2.90;;;25.20;53.60;;;;;;5013456;28;20460;-79
2023/05/26 11:10:02;;;;;;;4.43;3.13;;;25.40;53.50;;;;;;5014619;28;20473;-79
2023/05/26 11:12:33;;;;;;;4.03;3.30;;;25.50;53.50;;;;;;5004412;28;20556;-77
2023/05/26 11:15:20;;;;;;;3.03;2.73;;;25.40;53.60;;;;;;5000172;28;20528;-77
2023/05/26 11:17:55;;;;;;;4.60;3.87;;;25.30;53.20;;;;;;4999735;28;20449;-78
2023/05/26 11:20:24;;;;;;;3.27;2.83;;;25.40;54.00;;;;;;5000712;28;20436;-78
2023/05/26 11:22:52;;;;;;;4.23;3.50;;;25.30;54.40;;;;;;5000134;28;20449;-78
2023/05/26 11:25:19;;;;;;;3.80;3.30;;;25.20;53.30;;;;;;5000346;28;20812;-78
2023/05/26 11:27:46;;;;;;;3.60;3.27;;;24.90;53.00;;;;;;5002081;28;21053;-78
2023/05/26 11:30:13;;;;;;;5.00;3.17;;;25.00;54.60;;;;;;5005128;28;21011;-77
2023/05/26 11:32:45;;;;;;;6.53;3.27;;;25.00;53.90;;;;;;5001738;28;20485;-76
2023/05/26 11:35:23;;;;;;;7.00;3.40;;;25.00;53.40;;;;;;5002149;28;20444;-77
2023/05/26 11:37:49;;;;;;;4.27;3.23;;;25.10;55.50;;;;;;5002038;28;20439;-77
2023/05/26 11:40:16;;;;;;;3.67;2.80;;;25.40;55.50;;;;;;5000790;28;20453;-77
2023/05/26 11:42:44;;;;;;;4.63;3.10;;;25.60;53.50;;;;;;5000595;28;20464;-77
2023/05/26 11:45:11;;;;;;;3.50;2.90;;;25.60;53.20;;;;;;5000425;28;20461;-78
2023/05/26 11:47:39;;;;;;;3.20;2.90;;;25.90;54.20;;;;;;5000537;28;20523;-77
2023/05/26 11:50:08;;;;;;;3.63;3.10;;;26.10;51.90;;;;;;5000582;28;20456;-78
2023/05/26 11:52:41;;;;;;;3.53;3.00;;;26.00;51.20;;;;;;5000363;28;20487;-77
2023/05/26 11:55:10;;;;;;;3.13;2.83;;;26.10;52.10;;;;;;5000649;28;20437;-78
2023/05/26 11:57:36;;;;;;;3.57;2.50;;;25.90;52.30;;;;;;4999406;28;20457;-77
2023/05/26 12:00:09;;;;;;;4.10;2.73;;;26.10;53.70;;;;;;4997449;28;20511;-78
2023/05/26 12:02:35;;;;;;;3.73;3.20;;;26.10;52.10;;;;;;4996927;28;20477;-78
2023/05/26 12:05:17;;;;;;;4.03;2.97;;;25.70;52.10;;;;;;4997148;28;20456;-77
2023/05/26 12:07:45;;;;;;;3.80;2.87;;;26.00;52.50;;;;;;4996708;28;20492;-78
2023/05/26 12:10:11;;;;;;;2.97;2.40;;;25.80;51.80;;;;;;4996878;28;20454;-78
2023/05/26 12:12:48;;;;;;;3.67;3.17;;;25.90;51.20;;;;;;4996918;28;20484;-78
2023/05/26 12:15:19;;;;;;;2.90;2.60;;;25.90;51.50;;;;;;4996289;28;20954;-78
2023/05/26 12:17:46;;;;;;;3.67;2.70;;;26.00;50.00;;;;;;4996848;28;20438;-79
2023/05/26 12:20:15;;;;;;;3.47;2.87;;;26.20;50.50;;;;;;4996579;28;20930;-78
2023/05/26 12:22:42;;;;;;;4.07;3.30;;;26.40;49.50;;;;;;4996612;28;20465;-78
2023/05/26 12:25:10;;;;;;;3.37;3.03;;;26.70;49.60;;;;;;4996912;28;20449;-78
2023/05/26 12:27:38;;;;;;;2.60;2.40;;;26.70;48.50;;;;;;4996888;28;20457;-77
2023/05/26 12:30:18;;;;;;;4.03;2.70;;;26.70;49.70;;;;;;4997201;28;20522;-78
2023/05/26 12:32:45;;;;;;;4.23;2.80;;;26.90;49.30;;;;;;4996739;28;20488;-78
2023/05/26 12:35:12;;;;;;;2.90;2.40;;;26.90;51.20;;;;;;4997311;28;20454;-78
2023/05/26 12:37:38;;;;;;;4.93;3.30;;;27.10;49.50;;;;;;4996814;28;20441;-78
2023/05/26 12:40:06;;;;;;;4.10;2.90;;;26.70;50.00;;;;;;4999444;28;20445;-78
2023/05/26 12:42:34;;;;;;;3.17;2.50;;;26.60;49.90;;;;;;4998338;28;20533;-78
2023/05/26 12:45:01;;;;;;;3.00;2.60;;;26.80;50.30;;;;;;5000466;28;20480;-78
2023/05/26 12:47:27;;;;;;;3.93;2.50;;;26.80;50.00;;;;;;4997507;28;20448;-78
2023/05/26 12:49:54;;;;;;;3.00;2.63;;;27.00;50.60;;;;;;4996461;28;20503;-78
2023/05/26 12:52:22;;;;;;;4.07;3.67;;;26.70;50.00;;;;;;4997431;28;20485;-78
2023/05/26 12:54:48;;;;;;;3.80;2.90;;;26.80;49.60;;;;;;4996265;28;20460;-78
2023/05/26 12:57:15;;;;;;;4.47;3.03;;;26.90;50.10;;;;;;4995859;28;20951;-78
2023/05/26 12:59:43;;;;;;;3.50;2.33;;;26.60;50.00;;;;;;4995515;28;20445;-77
2023/05/26 13:02:10;;;;;;;3.80;2.60;;;26.40;50.10;;;;;;4995120;28;20512;-78
2023/05/26 13:04:36;;;;;;;3.30;2.83;;;26.40;50.60;;;;;;4995646;28;20548;-76
2023/05/26 13:07:03;;;;;;;4.13;2.70;;;26.50;49.90;;;;;;4995440;28;20511;-77
2023/05/26 13:09:30;;;;;;;5.20;3.00;;;26.60;50.70;;;;;;4994884;28;20531;-78
2023/05/26 13:11:58;;;;;;;2.80;2.50;;;26.70;50.10;;;;;;4995178;28;20491;-77
2023/05/26 13:14:25;;;;;;;2.93;2.27;;;27.00;48.80;;;;;;4995316;28;20461;-78
2023/05/26 13:16:53;;;;;;;3.10;2.80;;;26.90;49.70;;;;;;4995194;28;20461;-78
2023/05/26 13:19:20;;;;;;;5.00;2.50;;;27.10;50.10;;;;;;4995207;28;20449;-78
2023/05/26 13:21:47;;;;;;;3.80;2.63;;;27.00;49.00;;;;;;4995082;28;20469;-78
2023/05/26 13:24:14;;;;;;;3.37;2.87;;;27.20;49.60;;;;;;4994841;28;20961;-78
2023/05/26 13:26:40;;;;;;;3.03;2.70;;;27.40;48.80;;;;;;4995337;28;20512;-77
2023/05/26 13:29:09;;;;;;;2.50;2.30;;;27.20;48.90;;;;;;4995395;28;20504;-78
2023/05/26 13:31:36;;;;;;;3.87;3.10;;;26.80;49.40;;;;;;4995047;28;20505;-77
2023/05/26 13:34:04;;;;;;;3.00;2.70;;;26.90;49.30;;;;;;4994584;28;20493;-79
2023/05/26 13:36:30;;;;;;;3.17;2.67;;;27.00;48.50;;;;;;4995077;28;20496;-78
2023/05/26 13:38:57;;;;;;;3.10;2.53;;;26.80;49.00;;;;;;4995911;28;20500;-79
2023/05/26 13:41:24;;;;;;;3.50;2.93;;;26.70;48.70;;;;;;4995424;28;20465;-78
2023/05/26 13:43:50;;;;;;;4.70;2.73;;;26.30;49.60;;;;;;4995053;28;20815;-78
2023/05/26 13:46:17;;;;;;;3.07;2.77;;;26.40;50.80;;;;;;4995769;28;20445;-79
2023/05/26 13:48:44;;;;;;;4.13;2.50;;;26.90;50.00;;;;;;4995305;28;20480;-78
2023/05/26 13:51:12;;;;;;;2.87;2.57;;;27.20;49.40;;;;;;4997417;28;20892;-79
2023/05/26 13:53:39;;;;;;;3.03;2.53;;;27.40;47.70;;;;;;4996939;28;20489;-78
2023/05/26 13:56:06;;;;;;;3.43;2.87;;;27.40;48.60;;;;;;4996441;28;20453;-79
2023/05/26 13:58:33;;;;;;;2.87;2.23;;;27.30;47.90;;;;;;4996673;28;20528;-79
2023/05/26 14:01:00;;;;;;;3.20;2.23;;;27.60;47.70;;;;;;4995814;28;20835;-78
2023/05/26 14:03:26;;;;;;;2.87;2.50;;;27.60;47.90;;;;;;4995512;28;20798;-80
2023/05/26 14:05:53;;;;;;;2.90;2.60;;;27.80;46.90;;;;;;4995033;28;20500;-79
2023/05/26 14:08:23;;;;;;;4.07;2.63;;;27.70;47.90;;;;;;4994499;28;20886;-79
2023/05/26 14:10:50;;;;;;;3.23;2.60;;;27.90;47.70;;;;;;4994976;28;20466;-79
2023/05/26 14:13:16;;;;;;;5.40;2.53;;;27.80;47.50;;;;;;4994546;28;20531;-79
2023/05/26 14:15:43;;;;;;;3.30;2.90;;;28.00;47.30;;;;;;4994183;28;20503;-79
2023/05/26 14:18:10;;;;;;;3.27;2.50;;;28.10;47.20;;;;;;4994311;28;20457;-79
2023/05/26 14:20:36;;;;;;;2.70;2.20;;;28.30;45.70;;;;;;4993774;28;20527;-78
2023/05/26 14:23:03;;;;;;;4.23;2.63;;;28.10;46.20;;;;;;4994425;28;20536;-79
2023/05/26 14:25:32;;;;;;;4.67;3.00;;;28.10;46.50;;;;;;4994899;28;20453;-79
2023/05/26 14:27:58;;;;;;;3.43;2.50;;;27.90;47.10;;;;;;4994369;28;20466;-78
2023/05/26 14:30:25;;;;;;;2.40;2.07;;;27.90;46.40;;;;;;4994183;28;20450;-78
2023/05/26 14:32:52;;;;;;;4.10;2.63;;;28.10;47.50;;;;;;4994179;28;20587;-78
2023/05/26 14:35:19;;;;;;;3.67;2.43;;;28.40;45.80;;;;;;4994372;28;20499;-78
2023/05/26 14:37:45;;;;;;;3.63;2.40;;;28.30;45.50;;;;;;4994893;28;20449;-78
2023/05/26 14:40:12;;;;;;;3.30;2.40;;;28.00;46.40;;;;;;4994796;28;20445;-78
2023/05/26 14:42:40;;;;;;;4.80;3.20;;;27.30;46.90;;;;;;4994921;28;20527;-78
2023/05/26 14:45:08;;;;;;;3.10;2.57;;;27.10;49.00;;;;;;4993924;28;20943;-79
2023/05/26 14:47:35;;;;;;;3.70;2.90;;;27.30;48.20;;;;;;4994439;28;20512;-77
2023/05/26 14:50:02;;;;;;;2.87;2.20;;;27.40;47.80;;;;;;4994018;28;20457;-78
2023/05/26 14:52:29;;;;;;;3.50;2.50;;;26.90;47.60;;;;;;4993767;28;20491;-78
2023/05/26 14:54:55;;;;;;;4.33;2.30;;;27.20;48.20;;;;;;4993736;28;20927;-79
2023/05/26 14:57:22;;;;;;;3.33;2.67;;;27.40;48.00;;;;;;4993473;28;20791;-78
2023/05/26 14:59:50;;;;;;;3.23;2.73;;;27.50;47.60;;;;;;4993415;28;20971;-78
2023/05/26 15:02:17;;;;;;;3.63;2.83;;;27.40;48.50;;;;;;4993301;28;20512;-78
2023/05/26 15:04:43;;;;;;;3.67;2.70;;;27.20;48.10;;;;;;4993724;28;20800;-78
2023/05/26 15:07:10;;;;;;;4.67;2.67;;;27.20;48.30;;;;;;4993648;28;20450;-78
2023/05/26 15:09:37;;;;;;;3.40;2.80;;;27.40;47.60;;;;;;4993753;28;20465;-76
2023/05/26 15:12:03;;;;;;;2.80;2.30;;;27.30;47.60;;;;;;4993593;28;20535;-76
2023/05/26 15:14:30;;;;;;;2.90;2.17;;;27.00;46.80;;;;;;4993247;28;21067;-73
2023/05/26 15:16:58;;;;;;;2.57;2.30;;;26.80;48.50;;;;;;4993522;28;20504;-73
2023/05/26 15:19:25;;;;;;;2.93;2.50;;;27.10;47.80;;;;;;4993556;28;20445;-73
2023/05/26 15:21:52;;;;;;;2.97;2.43;;;27.40;47.80;;;;;;4993421;28;20496;-73
2023/05/26 15:24:18;;;;;;;3.40;2.30;;;27.60;47.10;;;;;;4993531;28;20476;-74
2023/05/26 15:26:45;;;;;;;4.03;2.60;;;27.40;46.40;;;;;;4993475;28;20448;-73
2023/05/26 15:29:14;;;;;;;2.73;2.40;;;27.10;47.40;;;;;;4993524;28;20441;-73
2023/05/26 15:31:41;;;;;;;2.80;2.50;;;26.90;47.90;;;;;;4993724;28;20473;-73
2023/05/26 15:34:09;;;;;;;2.87;2.23;;;27.00;47.90;;;;;;4997322;28;21064;-74
2023/05/26 15:36:35;;;;;;;3.00;2.10;;;27.30;47.50;;;;;;4997281;28;20943;-74
2023/05/26 15:39:02;;;;;;;3.17;2.10;;;27.40;48.20;;;;;;4997455;28;20792;-74
2023/05/26 15:41:29;;;;;;;2.73;2.20;;;27.50;47.10;;;;;;4997029;28;21012;-73
2023/05/26 15:43:56;;;;;;;3.10;2.33;;;27.50;47.30;;;;;;4997665;28;20544;-73
2023/05/26 15:46:22;;;;;;;3.23;2.23;;;27.60;47.20;;;;;;4997183;28;20503;-74
2023/05/26 15:48:49;;;;;;;3.27;2.70;;;27.40;46.80;;;;;;4996972;28;20511;-73
2023/05/26 15:51:17;;;;;;;2.90;2.10;;;27.00;48.00;;;;;;4996733;28;20473;-74
2023/05/26 15:53:44;;;;;;;3.27;2.03;;;26.90;47.60;;;;;;4996672;28;20481;-73
2023/05/26 15:56:11;;;;;;;3.47;2.73;;;26.90;47.30;;;;;;4996417;28;20962;-73
2023/05/26 15:58:38;;;;;;;2.60;2.20;;;27.00;48.30;;;;;;4996687;28;20484;-72
2023/05/26 16:01:05;;;;;;;4.33;2.47;;;27.00;48.30;;;;;;4996426;28;20493;-73
2023/05/26 16:03:31;;;;;;;2.50;2.07;;;27.00;47.70;;;;;;4996604;28;20430;-73
2023/05/26 16:05:58;;;;;;;3.40;2.63;;;26.80;47.90;;;;;;4996547;28;20485;-73
2023/05/26 16:08:26;;;;;;;5.10;2.50;;;26.80;48.00;;;;;;4996278;28;20947;-73
2023/05/26 16:10:53;;;;;;;2.77;2.33;;;26.70;48.00;;;;;;4996378;28;20473;-73
2023/05/26 16:13:21;;;;;;;2.50;2.27;;;26.60;48.20;;;;;;4996409;28;20477;-74
2023/05/26 16:15:47;;;;;;;3.40;2.77;;;26.50;48.70;;;;;;4996594;28;21012;-74
2023/05/26 16:18:14;;;;;;;3.80;2.80;;;26.30;48.20;;;;;;4996060;28;21012;-73
2023/05/26 16:20:42;;;;;;;3.07;2.07;;;26.30;48.80;;;;;;4995907;28;20449;-74
2023/05/26 16:23:09;;;;;;;2.83;2.53;;;26.30;48.60;;;;;;4996335;28;20855;-73
2023/05/26 16:25:38;;;;;;;4.30;2.50;;;26.30;49.10;;;;;;4996173;28;20548;-72
2023/05/26 16:28:04;;;;;;;2.73;2.43;;;26.40;48.60;;;;;;4996133;28;20826;-73
2023/05/26 16:30:31;;;;;;;3.07;2.77;;;26.20;49.40;;;;;;4996290;28;20492;-73
2023/05/26 16:32:58;;;;;;;2.80;2.27;;;26.20;48.70;;;;;;4995956;28;20449;-74
2023/05/26 16:35:37;;;;;;;4.40;2.80;;;25.80;48.70;;;;;;4995733;28;20947;-75
2023/05/26 16:38:04;;;;;;;4.53;2.60;;;25.50;49.10;;;;;;4995794;28;20488;-75
2023/05/26 16:40:31;;;;;;;3.50;3.20;;;25.50;49.50;;;;;;4995579;28;20958;-77
2023/05/26 16:42:59;;;;;;;3.10;2.40;;;25.50;50.30;;;;;;4996162;28;20486;-76
2023/05/26 16:45:27;;;;;;;2.50;2.10;;;25.50;49.60;;;;;;4995079;28;20457;-76
2023/05/26 16:47:53;;;;;;;2.63;2.33;;;25.60;49.00;;;;;;4995785;28;20449;-76
2023/05/26 16:50:20;;;;;;;3.93;2.60;;;25.50;49.10;;;;;;4995868;28;20877;-77